Harbor Springs, MI

5:27 PM EST on February 26, 2017 (GMT -0500)
Harbor Springs

Weather History for KMGN - October, 2013

Change the Weather History Date:

Wednesday, October 16, 2013

  Actual Average (KPLN) Record (KPLN)
Temperature  
Mean Temperature 54 °F -  
Max Temperature 57 °F 54 °F 83 °F (1968)
Min Temperature 50 °F 36 °F 21 °F (2002)
Degree Days  
Heating Degree Days 12    
Growing Degree Days 4 (Base 50)    
Moisture  
Dew Point 50 °F    
Average Humidity 89    
Maximum Humidity 97    
Minimum Humidity 79    
Precipitation  
Precipitation 0.00 in - - ()
Sea Level Pressure  
Sea Level Pressure 29.72 in    
Wind  
Wind Speed 7 mph (WSW)    
Max Wind Speed 15 mph    
Max Gust Speed 24 mph    
Visibility 9 miles    
Events Rain    
Averages and records for this station are not official NWS values.
T = Trace of Precipitation, MM = Missing Value Source: NWS Daily Summary

Daily Weather History Graph

Daily Weather History Graph

Search for Another Location

Airport or City:

Trip Planner

Search our weather history database for the weather conditions in past years. The results will help you decide how hot, cold, wet, or windy it might be!

Date:

Astronomy

Oct. 16, 2013 Rise Set
Actual Time 7:57 AM EDT 6:52 PM EDT
Civil Twilight 7:27 AM EDT 7:21 PM EDT
Nautical Twilight 6:53 AM EDT 7:56 PM EDT
Astronomical Twilight 6:19 AM EDT 8:30 PM EDT
Moon 5:35 PM EDT (10/16) 5:18 AM EDT (10/16)
Length of Visible Light 11h 54m
Length of Day
10h 54m
Waxing Gibbous, 94% of the Moon is Illuminated
Oct 16
Waxing Gibbous
Oct 18
Full
Oct 26
Last Quarter
Nov 3
New
Nov 10
First Quarter

Hourly Weather History & Observations

Time (EDT) Temp. Dew Point Humidity Pressure Visibility Wind Dir Wind Speed Gust Speed Precip Events Conditions
12:14 AM 55.2 °F 54.1 °F 96% 29.71 in 5.0 mi Calm Calm - N/A   Overcast
12:35 AM 55.4 °F 54.3 °F 96% 29.70 in 5.0 mi ENE 3.5 mph - N/A   Overcast
12:55 AM 55.4 °F 54.5 °F 97% 29.70 in 5.0 mi Calm Calm - N/A   Overcast
1:14 AM 55.6 °F 54.7 °F 97% 29.69 in 5.0 mi Calm Calm - N/A   Overcast
1:35 AM 57.4 °F 56.7 °F 97% 29.69 in 7.0 mi SSW 6.9 mph - N/A   Overcast
1:55 AM 57.7 °F 56.5 °F 96% 29.69 in 7.0 mi SW 4.6 mph - N/A   Overcast
2:14 AM 57.4 °F 56.3 °F 96% 29.69 in 7.0 mi SSW 3.5 mph - N/A   Mostly Cloudy
2:35 AM 57.4 °F 56.3 °F 96% 29.68 in 7.0 mi Calm Calm - N/A   Mostly Cloudy
2:54 AM 57.4 °F 56.3 °F 96% 29.68 in 7.0 mi Calm Calm - N/A   Mostly Cloudy
3:14 AM 57.4 °F 56.3 °F 96% 29.67 in 7.0 mi Calm Calm - N/A   Overcast
3:35 AM 57.4 °F 56.3 °F 96% 29.68 in 5.0 mi SW 10.4 mph - N/A   Overcast
3:54 AM 57.4 °F 55.6 °F 94% 29.68 in 10.0 mi SW 10.4 mph 17.3 mph N/A   Overcast
4:15 AM 57.4 °F 54.7 °F 91% 29.67 in 10.0 mi SSW 9.2 mph - N/A   Mostly Cloudy
4:34 AM 57.4 °F 54.5 °F 90% 29.67 in 10.0 mi SSW 10.4 mph 17.3 mph N/A   Mostly Cloudy
4:55 AM 56.7 °F 52.7 °F 87% 29.66 in 10.0 mi SSW 12.7 mph 20.7 mph N/A   Mostly Cloudy
5:15 AM 56.1 °F 51.8 °F 85% 29.66 in 10.0 mi SSW 10.4 mph - N/A   Overcast
5:34 AM 55.0 °F 50.2 °F 84% 29.66 in 10.0 mi SW 12.7 mph 20.7 mph N/A   Overcast
5:55 AM 54.9 °F 50.0 °F 84% 29.66 in 10.0 mi SW 12.7 mph 19.6 mph N/A   Overcast
6:15 AM 54.9 °F 50.0 °F 84% 29.66 in 10.0 mi SSW 13.8 mph 20.7 mph N/A   Overcast
6:34 AM 54.9 °F 49.5 °F 82% 29.67 in 10.0 mi SW 11.5 mph 18.4 mph N/A   Overcast
6:55 AM 54.9 °F 49.5 °F 82% 29.66 in 10.0 mi SW 11.5 mph 17.3 mph N/A   Overcast
7:15 AM 54.9 °F 50.0 °F 84% 29.67 in 7.0 mi SW 12.7 mph 19.6 mph N/A Rain Rain
7:34 AM 52.3 °F 49.5 °F 90% 29.67 in 7.0 mi SSW 9.2 mph 17.3 mph N/A   Drizzle
7:55 AM 52.5 °F 49.6 °F 90% 29.67 in 10.0 mi SSW 5.8 mph - N/A   Overcast
8:15 AM 52.5 °F 50.0 °F 91% 29.66 in 10.0 mi SSW 9.2 mph - N/A   Overcast
8:34 AM 52.9 °F 50.0 °F 90% 29.66 in 10.0 mi SSW 8.1 mph - N/A   Overcast
8:55 AM 54.0 °F 51.1 °F 90% 29.66 in 10.0 mi SSW 8.1 mph - N/A Rain Light Rain
9:14 AM 52.3 °F 50.0 °F 92% 29.66 in 10.0 mi SSW 8.1 mph - N/A   Drizzle
9:34 AM 52.7 °F 50.0 °F 91% 29.66 in 10.0 mi SSW 10.4 mph 16.1 mph N/A   Light Drizzle
9:55 AM 54.9 °F 52.0 °F 90% 29.67 in 10.0 mi SSW 9.2 mph - N/A   Overcast
10:14 AM 54.9 °F 51.4 °F 88% 29.67 in 10.0 mi SW 12.7 mph 17.3 mph N/A   Light Drizzle
10:34 AM 54.9 °F 50.2 °F 84% 29.67 in 10.0 mi SW 12.7 mph 24.2 mph N/A Rain Rain
10:55 AM 54.9 °F 50.0 °F 84% 29.67 in 10.0 mi SW 12.7 mph 24.2 mph N/A Rain Rain
11:14 AM 54.9 °F 51.1 °F 87% 29.67 in 4.0 mi SW 15.0 mph 20.7 mph N/A   Heavy Drizzle
11:34 AM 54.9 °F 51.4 °F 88% 29.67 in 7.0 mi SW 13.8 mph 19.6 mph N/A Rain Light Rain
11:55 AM 54.9 °F 52.0 °F 90% 29.67 in 4.0 mi SW 13.8 mph 21.9 mph N/A Rain Rain
12:14 PM 54.9 °F 52.7 °F 92% 29.67 in 5.0 mi SW 15.0 mph 19.6 mph N/A Rain Rain
12:34 PM 54.9 °F 53.1 °F 94% 29.67 in 2.5 mi SW 13.8 mph 20.7 mph N/A   Heavy Drizzle
12:55 PM 52.7 °F 51.3 °F 95% 29.68 in 1.8 mi WNW 5.8 mph 19.6 mph N/A Rain Rain
1:14 PM 53.6 °F 51.6 °F 93% 29.68 in 7.0 mi WNW 5.8 mph - N/A   Overcast
1:35 PM 52.9 °F 50.9 °F 93% 29.69 in 10.0 mi West 8.1 mph - N/A   Overcast
1:54 PM 53.2 °F 51.1 °F 92% 29.69 in 10.0 mi WNW 8.1 mph - N/A   Overcast
2:14 PM 54.9 °F 52.0 °F 90% 29.69 in 10.0 mi WNW 9.2 mph - N/A   Overcast
2:35 PM 54.9 °F 52.0 °F 90% 29.70 in 10.0 mi West 5.8 mph - N/A   Overcast
2:55 PM 52.9 °F 50.2 °F 91% 29.71 in 10.0 mi West 11.5 mph 17.3 mph N/A   Overcast
3:14 PM 52.3 °F 50.2 °F 92% 29.71 in 4.0 mi West 6.9 mph - N/A   Drizzle
3:35 PM 52.3 °F 50.0 °F 92% 29.72 in 10.0 mi West 8.1 mph - N/A   Overcast
3:54 PM 52.3 °F 49.8 °F 91% 29.73 in 10.0 mi West 5.8 mph - N/A   Overcast
4:14 PM 52.3 °F 49.6 °F 91% 29.73 in 10.0 mi West 5.8 mph - N/A   Overcast
4:35 PM 52.3 °F 49.3 °F 89% 29.73 in 10.0 mi West 8.1 mph - N/A   Overcast
4:54 PM 52.3 °F 48.9 °F 88% 29.74 in 10.0 mi West 9.2 mph - N/A   Overcast
5:14 PM 52.2 °F 48.4 °F 87% 29.74 in 10.0 mi West 8.1 mph - N/A   Overcast
5:35 PM 52.0 °F 47.7 °F 85% 29.75 in 10.0 mi West 8.1 mph - N/A   Overcast
5:54 PM 51.3 °F 47.3 °F 86% 29.76 in 10.0 mi West 5.8 mph - N/A   Overcast
6:14 PM 51.3 °F 47.1 °F 86% 29.76 in 10.0 mi WNW 8.1 mph - N/A   Overcast
6:35 PM 50.7 °F 46.4 °F 85% 29.76 in 10.0 mi West 11.5 mph - N/A   Overcast
6:54 PM 50.0 °F 45.5 °F 85% 29.77 in 10.0 mi West 5.8 mph - N/A   Overcast
7:14 PM 50.0 °F 45.5 °F 85% 29.79 in 10.0 mi WNW 9.2 mph - N/A   Overcast
7:35 PM 50.2 °F 45.5 °F 84% 29.79 in 10.0 mi West 8.1 mph - N/A   Overcast
7:54 PM 50.0 °F 45.1 °F 83% 29.80 in 10.0 mi West 9.2 mph - N/A   Overcast
8:15 PM 50.0 °F 44.8 °F 82% 29.81 in 10.0 mi NW 9.2 mph - N/A Rain Light Rain
8:34 PM 50.0 °F 44.8 °F 82% 29.81 in 10.0 mi WNW 4.6 mph - N/A   Light Drizzle
8:54 PM 50.0 °F 44.8 °F 82% 29.81 in 10.0 mi NW 8.1 mph - N/A Rain Rain
9:35 PM 50.0 °F 45.0 °F 83% 29.82 in 10.0 mi WNW 5.8 mph - N/A Rain Rain
9:54 PM 50.0 °F 45.5 °F 85% 29.83 in 10.0 mi WNW 5.8 mph - N/A   Light Drizzle
10:15 PM 50.0 °F 45.0 °F 83% 29.83 in 10.0 mi West 5.8 mph - N/A   Overcast
10:34 PM 50.0 °F 44.8 °F 82% 29.83 in 10.0 mi West 4.6 mph - N/A   Overcast
10:54 PM 50.0 °F 44.4 °F 81% 29.83 in 10.0 mi NW 6.9 mph - N/A   Overcast
11:15 PM 50.0 °F 44.1 °F 80% 29.84 in 10.0 mi NW 8.1 mph - N/A   Overcast
11:34 PM 50.0 °F 43.9 °F 79% 29.84 in 10.0 mi NW 6.9 mph - N/A   Overcast
11:54 PM 50.0 °F 44.1 °F 80% 29.84 in 10.0 mi WNW 6.9 mph - N/A   Overcast